createdAt,value
2022-08-03T00:01:51.106Z,42.12
2022-08-03T00:04:21.750Z,42.16
2022-08-03T00:07:04.929Z,42.08
2022-08-03T00:09:35.998Z,42.01
2022-08-03T00:12:07.333Z,42.35
2022-08-03T00:14:38.061Z,42.22
2022-08-03T00:17:08.719Z,42.19
2022-08-03T00:19:39.436Z,42.27
2022-08-03T00:22:10.449Z,42.33
2022-08-03T00:24:41.091Z,42.13
2022-08-03T00:27:16.332Z,42.34
2022-08-03T00:29:59.927Z,42.35
2022-08-03T00:32:31.221Z,42.61
2022-08-03T00:35:07.912Z,42.57
2022-08-03T00:37:41.993Z,42.37
2022-08-03T00:40:14.418Z,42.47
2022-08-03T00:42:52.328Z,42.27
2022-08-03T00:45:26.012Z,42.43
2022-08-03T00:47:56.871Z,42.30
2022-08-03T00:50:28.314Z,42.49
2022-08-03T00:52:59.772Z,42.27
2022-08-03T00:55:30.618Z,42.25
2022-08-03T00:58:01.561Z,42.31
2022-08-03T01:00:32.337Z,42.32
2022-08-03T01:03:02.991Z,42.43
2022-08-03T01:05:33.764Z,42.53
2022-08-03T01:08:05.500Z,42.42
2022-08-03T01:10:39.723Z,42.51
2022-08-03T01:14:03.517Z,42.86
2022-08-03T01:16:08.190Z,42.82
2022-08-03T01:18:40.385Z,42.89
2022-08-03T01:21:12.171Z,42.97
2022-08-03T01:23:47.991Z,42.77
2022-08-03T01:26:27.024Z,42.96
2022-08-03T01:29:00.804Z,42.84
2022-08-03T01:31:33.866Z,42.94
2022-08-03T01:34:24.829Z,42.90
2022-08-03T01:36:55.588Z,42.97
2022-08-03T01:39:26.292Z,43.10
2022-08-03T01:41:59.417Z,43.04
2022-08-03T01:44:31.221Z,43.19
2022-08-03T01:47:03.065Z,43.32
2022-08-03T01:49:35.630Z,43.33
2022-08-03T01:52:06.610Z,43.45
2022-08-03T01:54:37.866Z,43.49
2022-08-03T01:57:08.755Z,43.54
2022-08-03T01:59:39.570Z,43.39
2022-08-03T02:02:32.427Z,43.41
2022-08-03T02:05:00.972Z,43.52
2022-08-03T02:07:31.735Z,43.57
2022-08-03T02:10:03.023Z,43.61
2022-08-03T02:12:34.160Z,43.77
2022-08-03T02:15:05.147Z,43.74
2022-08-03T02:17:39.916Z,43.77
2022-08-03T02:20:12.610Z,43.84
2022-08-03T02:22:43.961Z,43.83
2022-08-03T02:25:15.406Z,43.82
2022-08-03T02:27:47.971Z,43.98
2022-08-03T02:30:18.904Z,44.08
2022-08-03T02:32:50.311Z,44.04
2022-08-03T02:35:20.978Z,44.04
2022-08-03T02:37:52.028Z,44.21
2022-08-03T02:40:22.651Z,44.18
2022-08-03T02:42:54.662Z,44.21
2022-08-03T02:45:25.314Z,44.44
2022-08-03T02:47:57.255Z,44.51
2022-08-03T02:50:28.080Z,44.50
2022-08-03T02:52:58.921Z,44.57
2022-08-03T02:55:29.749Z,44.81
2022-08-03T02:58:01.428Z,45.00
2022-08-03T03:00:32.680Z,44.86
2022-08-03T03:03:04.045Z,45.02
2022-08-03T03:05:52.135Z,45.13
2022-08-03T03:08:28.459Z,45.51
2022-08-03T03:11:01.653Z,45.50
2022-08-03T03:13:32.547Z,45.70
2022-08-03T03:16:04.259Z,45.60
2022-08-03T03:18:35.281Z,45.67
2022-08-03T03:21:06.138Z,45.75
2022-08-03T03:23:37.398Z,45.77
2022-08-03T03:26:08.178Z,45.86
2022-08-03T03:28:38.939Z,45.84
2022-08-03T03:31:09.997Z,46.15
2022-08-03T03:33:40.678Z,46.21
2022-08-03T03:36:11.390Z,46.19
2022-08-03T03:38:42.113Z,46.43
2022-08-03T03:41:12.814Z,46.56
2022-08-03T03:43:43.634Z,46.31
2022-08-03T03:46:15.296Z,46.67
2022-08-03T03:48:45.944Z,46.56
2022-08-03T03:51:16.577Z,46.51
2022-08-03T03:53:57.587Z,46.81
2022-08-03T03:56:28.925Z,46.69
2022-08-03T03:58:59.556Z,46.72
2022-08-03T04:01:30.268Z,46.96
2022-08-03T04:04:21.446Z,46.65
2022-08-03T04:07:09.863Z,46.88
2022-08-03T04:09:58.115Z,46.65
2022-08-03T04:12:31.735Z,46.75
2022-08-03T04:15:02.537Z,46.62
2022-08-03T04:17:33.152Z,46.71
2022-08-03T04:20:03.849Z,46.60
2022-08-03T04:22:34.681Z,46.77
2022-08-03T04:25:06.520Z,46.78
2022-08-03T04:27:38.246Z,46.83
2022-08-03T04:30:09.878Z,46.81
2022-08-03T04:32:44.177Z,46.67
2022-08-03T04:35:16.622Z,46.71
2022-08-03T04:37:48.958Z,46.85
2022-08-03T04:40:22.802Z,46.77
2022-08-03T04:42:53.651Z,46.73
2022-08-03T04:45:24.377Z,46.93
2022-08-03T04:47:55.024Z,46.99
2022-08-03T04:50:25.764Z,46.95
2022-08-03T04:52:56.720Z,47.02
2022-08-03T04:55:30.901Z,46.82
2022-08-03T04:58:02.116Z,46.87
2022-08-03T05:00:32.768Z,46.97
2022-08-03T05:03:03.445Z,46.78
2022-08-03T05:05:50.906Z,46.98
2022-08-03T05:08:27.764Z,46.94
2022-08-03T05:10:59.669Z,46.92
2022-08-03T05:13:30.472Z,46.99
2022-08-03T05:16:01.253Z,46.82
2022-08-03T05:18:32.416Z,47.09
2022-08-03T05:21:03.279Z,47.02
2022-08-03T05:23:33.990Z,46.98
2022-08-03T05:26:04.936Z,47.15
2022-08-03T05:28:35.539Z,47.15
2022-08-03T05:31:06.201Z,46.83
2022-08-03T05:33:37.002Z,46.87
2022-08-03T05:36:07.956Z,47.09
2022-08-03T05:38:39.224Z,47.02
2022-08-03T05:41:21.755Z,46.90
2022-08-03T05:43:54.931Z,46.92
2022-08-03T05:46:25.676Z,46.78
2022-08-03T05:48:56.465Z,46.87
2022-08-03T05:51:27.999Z,46.87
2022-08-03T05:53:58.698Z,46.80
2022-08-03T05:56:29.306Z,46.81
2022-08-03T05:59:11.379Z,46.46
2022-08-03T06:01:50.772Z,46.21
2022-08-03T06:04:21.924Z,46.35
2022-08-03T06:06:52.626Z,46.04
2022-08-03T06:09:23.273Z,45.97
2022-08-03T06:12:02.735Z,46.11
2022-08-03T06:14:33.481Z,45.94
2022-08-03T06:17:04.090Z,45.91
2022-08-03T06:19:34.860Z,45.47
2022-08-03T06:22:05.576Z,45.32
2022-08-03T06:24:36.186Z,45.02
2022-08-03T06:27:06.970Z,44.82
2022-08-03T06:29:37.978Z,44.54
2022-08-03T06:32:11.659Z,44.38
2022-08-03T06:34:42.308Z,44.28
2022-08-03T06:37:13.273Z,44.19
2022-08-03T06:39:44.071Z,44.10
2022-08-03T06:42:19.020Z,43.91
2022-08-03T06:44:51.496Z,43.81
2022-08-03T06:47:22.080Z,43.50
2022-08-03T06:50:14.186Z,43.41
2022-08-03T06:52:43.588Z,43.31
2022-08-03T06:55:14.228Z,43.29
2022-08-03T06:57:45.028Z,43.26
2022-08-03T07:00:16.916Z,43.25
2022-08-03T07:02:47.683Z,43.22
2022-08-03T07:05:18.978Z,43.15
2022-08-03T07:07:49.779Z,42.92
2022-08-03T07:10:20.585Z,42.75
2022-08-03T07:12:56.006Z,42.44
2022-08-03T07:15:54.599Z,42.63
2022-08-03T07:18:29.572Z,42.32
2022-08-03T07:21:00.921Z,42.04
2022-08-03T07:23:31.566Z,41.54
2022-08-03T07:26:02.332Z,41.75
2022-08-03T07:28:33.039Z,41.79
2022-08-03T07:31:03.854Z,41.28
2022-08-03T07:33:34.519Z,40.69
2022-08-03T07:36:05.481Z,40.60
2022-08-03T07:38:37.444Z,40.70
2022-08-03T07:41:08.110Z,40.76
2022-08-03T07:43:38.769Z,40.39
2022-08-03T07:46:09.420Z,40.09
2022-08-03T07:48:40.146Z,39.73
2022-08-03T07:51:10.773Z,39.37
2022-08-03T07:53:47.428Z,39.13
2022-08-03T07:56:19.821Z,39.10
2022-08-03T07:58:50.450Z,38.93
2022-08-03T08:01:21.189Z,38.86
2022-08-03T08:03:53.723Z,38.56
2022-08-03T08:06:24.657Z,38.22
2022-08-03T08:08:59.567Z,38.30
2022-08-03T08:11:30.318Z,37.99
2022-08-03T08:14:03.081Z,37.68
2022-08-03T08:16:33.698Z,37.30
2022-08-03T08:19:04.419Z,36.76
2022-08-03T08:21:52.966Z,36.88
2022-08-03T08:24:25.833Z,36.60
2022-08-03T08:26:57.012Z,36.56
2022-08-03T08:29:27.671Z,36.41
2022-08-03T08:31:58.313Z,36.29
2022-08-03T08:34:29.027Z,35.79
2022-08-03T08:37:04.048Z,35.56
2022-08-03T08:39:34.748Z,35.58
2022-08-03T08:42:05.509Z,35.42
2022-08-03T08:44:37.361Z,35.33
2022-08-03T08:47:08.115Z,34.96
2022-08-03T08:49:38.864Z,34.69
2022-08-03T08:52:25.464Z,34.52
2022-08-03T08:55:01.292Z,34.48
2022-08-03T08:57:42.715Z,34.50
2022-08-03T09:00:15.433Z,33.84
2022-08-03T09:02:46.405Z,33.94
2022-08-03T09:05:17.734Z,33.77
2022-08-03T09:07:48.846Z,33.38
2022-08-03T09:10:22.066Z,33.34
2022-08-03T09:12:53.217Z,33.36
2022-08-03T09:15:25.466Z,33.09
2022-08-03T09:17:56.912Z,33.12
2022-08-03T09:20:28.147Z,32.69
2022-08-03T09:23:00.113Z,32.49
2022-08-03T09:25:31.897Z,32.01
2022-08-03T09:28:10.370Z,32.27
2022-08-03T09:30:41.720Z,32.14
2022-08-03T09:33:12.891Z,31.92
2022-08-03T09:35:53.646Z,31.90
2022-08-03T09:38:26.574Z,31.85
2022-08-03T09:41:00.390Z,31.36
2022-08-03T09:43:31.640Z,30.92
2022-08-03T09:46:05.658Z,31.14
2022-08-03T09:48:37.481Z,30.96
2022-08-03T09:51:13.239Z,30.77
2022-08-03T09:54:01.913Z,30.26
2022-08-03T09:56:42.952Z,30.38
2022-08-03T09:59:14.112Z,29.76
2022-08-03T10:01:45.048Z,29.46
2022-08-03T10:04:17.234Z,29.58
2022-08-03T10:06:48.137Z,29.22
2022-08-03T10:09:18.937Z,28.98
2022-08-03T10:11:49.620Z,28.96
2022-08-03T10:14:20.297Z,28.93
2022-08-03T10:16:51.135Z,28.85
2022-08-03T10:19:21.795Z,28.40
2022-08-03T10:21:54.932Z,28.33
2022-08-03T10:24:28.354Z,28.23
2022-08-03T10:27:00.999Z,28.23
2022-08-03T10:29:31.672Z,27.60
2022-08-03T10:32:02.459Z,27.57
2022-08-03T10:34:35.818Z,27.34
2022-08-03T10:37:08.733Z,27.21
2022-08-03T10:39:39.503Z,27.06
2022-08-03T10:42:14.648Z,26.77
2022-08-03T10:44:45.656Z,26.31
2022-08-03T10:47:16.553Z,26.55
2022-08-03T10:49:47.405Z,26.17
2022-08-03T10:52:32.882Z,26.32
2022-08-03T10:55:24.790Z,26.16
2022-08-03T10:57:59.170Z,25.95
2022-08-03T11:00:31.010Z,25.86
2022-08-03T11:03:06.605Z,25.45
2022-08-03T11:05:38.442Z,25.00
2022-08-03T11:08:26.273Z,25.05
2022-08-03T11:10:57.734Z,24.98
2022-08-03T11:13:31.279Z,24.85
2022-08-03T11:16:07.099Z,24.50
2022-08-03T11:18:39.508Z,24.31
2022-08-03T11:21:10.151Z,24.33
2022-08-03T11:24:04.082Z,24.50
2022-08-03T11:26:37.107Z,24.43
2022-08-03T11:29:24.802Z,24.54
2022-08-03T11:31:55.485Z,24.00
2022-08-03T11:34:26.516Z,24.07
2022-08-03T11:37:14.965Z,23.77
2022-08-03T11:39:46.845Z,23.90
2022-08-03T11:42:35.402Z,23.70
2022-08-03T11:45:06.248Z,23.49
2022-08-03T11:47:50.997Z,23.16
2022-08-03T11:50:22.257Z,23.31
2022-08-03T11:52:53.009Z,23.22
2022-08-03T11:55:25.028Z,22.90
2022-08-03T11:59:11.042Z,22.62
2022-08-03T12:00:51.001Z,22.73
2022-08-03T12:03:22.167Z,22.56
2022-08-03T12:05:53.470Z,22.34
2022-08-03T12:08:32.771Z,22.02
2022-08-03T12:11:05.829Z,22.12
2022-08-03T12:14:45.644Z,21.61
2022-08-03T12:16:34.076Z,21.80
2022-08-03T12:19:08.469Z,21.62
2022-08-03T12:21:40.799Z,21.33
2022-08-03T12:24:28.643Z,21.36
2022-08-03T12:27:00.019Z,21.17
2022-08-03T12:29:30.965Z,20.94
2022-08-03T12:32:01.668Z,20.77
2022-08-03T12:34:47.486Z,20.64
2022-08-03T12:37:22.551Z,20.85
2022-08-03T12:40:02.074Z,20.50
2022-08-03T12:42:37.695Z,20.17
2022-08-03T12:45:21.778Z,20.01
2022-08-03T12:47:53.139Z,19.85
2022-08-03T12:50:27.651Z,19.54
2022-08-03T12:52:59.036Z,19.64
2022-08-03T12:55:56.961Z,19.39
2022-08-03T12:58:34.181Z,19.48
2022-08-03T13:01:09.148Z,19.12
2022-08-03T13:03:45.792Z,19.20
2022-08-03T13:06:21.436Z,19.51
2022-08-03T13:08:52.418Z,19.25
2022-08-03T13:11:53.431Z,18.88
2022-08-03T13:14:20.158Z,18.75
2022-08-03T13:16:51.320Z,18.73
2022-08-03T13:19:22.021Z,18.78
2022-08-03T13:22:01.918Z,18.71
2022-08-03T13:24:35.438Z,18.70
2022-08-03T13:28:01.091Z,18.50
2022-08-03T13:29:58.487Z,18.44
2022-08-03T13:32:29.283Z,18.31
2022-08-03T13:35:00.140Z,18.35
2022-08-03T13:37:32.719Z,18.17
2022-08-03T13:40:05.446Z,17.98
2022-08-03T13:42:36.773Z,18.12
2022-08-03T13:45:09.424Z,18.09
2022-08-03T13:47:40.558Z,17.93
2022-08-03T13:50:11.324Z,17.94
2022-08-03T13:52:42.033Z,17.60
2022-08-03T13:55:12.852Z,17.40
2022-08-03T13:58:03.026Z,17.50
2022-08-03T14:00:34.391Z,17.58
2022-08-03T14:03:13.105Z,17.98
2022-08-03T14:05:44.931Z,17.43
2022-08-03T14:08:15.867Z,17.34
2022-08-03T14:10:46.775Z,17.32
2022-08-03T14:13:18.277Z,17.13
2022-08-03T14:15:49.917Z,17.36
2022-08-03T14:18:27.890Z,17.59
2022-08-03T14:21:04.979Z,17.32
2022-08-03T14:23:37.734Z,17.08
2022-08-03T14:26:09.016Z,17.13
2022-08-03T14:28:39.718Z,17.11
2022-08-03T14:32:10.320Z,17.23
2022-08-03T14:34:00.948Z,17.24
2022-08-03T14:36:31.656Z,17.17
2022-08-03T14:39:02.451Z,16.93
2022-08-03T14:41:33.298Z,16.85
2022-08-03T14:44:04.023Z,17.14
2022-08-03T14:46:34.698Z,16.77
2022-08-03T14:50:38.459Z,16.92
2022-08-03T14:51:56.784Z,17.02
2022-08-03T14:54:31.038Z,16.91
2022-08-03T14:57:01.736Z,16.94
2022-08-03T14:59:55.666Z,16.99
2022-08-03T15:02:23.943Z,16.97
2022-08-03T15:04:54.904Z,16.97
2022-08-03T15:07:25.560Z,17.10
2022-08-03T15:09:56.220Z,17.13
2022-08-03T15:12:26.994Z,17.11
2022-08-03T15:14:57.727Z,17.14
2022-08-03T15:17:28.463Z,17.34
2022-08-03T15:20:00.264Z,17.34
2022-08-03T15:22:36.643Z,17.23
2022-08-03T15:26:31.864Z,17.43
2022-08-03T15:28:03.796Z,17.42
2022-08-03T15:30:37.155Z,17.37
2022-08-03T15:33:08.946Z,17.47
2022-08-03T15:35:42.585Z,17.48
2022-08-03T15:38:19.833Z,17.62
2022-08-03T15:40:54.685Z,17.50
2022-08-03T15:43:26.715Z,17.70
2022-08-03T15:46:26.910Z,17.82
2022-08-03T15:48:50.512Z,17.74
2022-08-03T15:51:30.470Z,17.93
2022-08-03T15:54:08.459Z,17.80
2022-08-03T15:56:41.976Z,17.94
2022-08-03T15:59:13.878Z,18.01
2022-08-03T16:01:46.542Z,18.11
2022-08-03T16:04:19.287Z,18.13
2022-08-03T16:06:50.874Z,18.14
2022-08-03T16:09:23.641Z,18.08
2022-08-03T16:12:16.223Z,18.24
2022-08-03T16:14:53.207Z,18.37
2022-08-03T16:17:32.551Z,18.45
2022-08-03T16:20:12.633Z,18.45
2022-08-03T16:22:56.262Z,18.46
2022-08-03T16:25:34.020Z,18.58
2022-08-03T16:28:13.571Z,18.78
2022-08-03T16:30:45.911Z,18.67
2022-08-03T16:33:17.793Z,18.92
2022-08-03T16:35:52.967Z,18.87
2022-08-03T16:38:26.203Z,19.13
2022-08-03T16:40:58.945Z,19.31
2022-08-03T16:43:42.045Z,19.43
2022-08-03T16:46:17.423Z,19.47
2022-08-03T16:48:50.145Z,19.45
2022-08-03T16:51:23.888Z,19.57
2022-08-03T16:54:21.207Z,19.83
2022-08-03T16:56:54.439Z,19.91
2022-08-03T16:59:36.048Z,19.89
2022-08-03T17:02:10.622Z,20.03
2022-08-03T17:04:47.881Z,19.97
2022-08-03T17:07:32.713Z,19.89
2022-08-03T17:10:09.550Z,20.33
2022-08-03T17:12:44.144Z,20.31
2022-08-03T17:15:17.671Z,20.33
2022-08-03T17:17:55.916Z,20.28
2022-08-03T17:20:30.049Z,20.70
2022-08-03T17:23:04.059Z,20.69
2022-08-03T17:26:02.448Z,20.86
2022-08-03T17:28:51.519Z,20.84
2022-08-03T17:31:31.865Z,21.09
2022-08-03T17:34:06.932Z,21.05
2022-08-03T17:37:03.097Z,21.08
2022-08-03T17:39:56.846Z,21.55
2022-08-03T17:42:30.851Z,21.25
2022-08-03T17:45:15.617Z,21.58
2022-08-03T17:47:57.493Z,21.68
2022-08-03T17:50:51.548Z,21.75
2022-08-03T17:53:27.708Z,21.98
2022-08-03T17:56:44.575Z,21.93
2022-08-03T17:59:08.390Z,21.95
2022-08-03T18:02:12.249Z,22.19
2022-08-03T18:04:55.486Z,22.24
2022-08-03T18:07:41.124Z,22.23
2022-08-03T18:10:15.453Z,22.32
2022-08-03T18:12:52.170Z,22.37
2022-08-03T18:15:32.009Z,22.44
2022-08-03T18:18:11.230Z,22.48
2022-08-03T18:20:42.750Z,22.57
2022-08-03T18:23:37.086Z,22.67
2022-08-03T18:26:12.000Z,22.71
2022-08-03T18:28:48.745Z,22.79
2022-08-03T18:31:33.171Z,22.85
2022-08-03T18:34:33.363Z,22.92
2022-08-03T18:37:08.205Z,23.13
2022-08-03T18:39:49.455Z,23.17
2022-08-03T18:42:26.233Z,23.10
2022-08-03T18:44:57.705Z,23.39
2022-08-03T18:47:50.727Z,23.42
2022-08-03T18:50:26.579Z,23.36
2022-08-03T18:53:15.585Z,23.51
2022-08-03T18:56:01.603Z,23.62
2022-08-03T18:58:38.799Z,23.59
2022-08-03T19:01:57.403Z,23.84
2022-08-03T19:04:15.258Z,23.80
2022-08-03T19:06:49.891Z,23.98
2022-08-03T19:09:28.088Z,23.77
2022-08-03T19:12:13.214Z,23.97
2022-08-03T19:14:55.007Z,23.84
2022-08-03T19:17:32.365Z,24.23
2022-08-03T19:20:09.001Z,24.23
2022-08-03T19:22:45.766Z,24.17
2022-08-03T19:25:34.518Z,24.34
2022-08-03T19:28:14.893Z,24.50
2022-08-03T19:30:53.701Z,24.50
2022-08-03T19:33:56.071Z,24.39
2022-08-03T19:36:35.187Z,24.57
2022-08-03T19:39:18.630Z,24.69
2022-08-03T19:41:53.015Z,24.90
2022-08-03T19:44:29.383Z,24.85
2022-08-03T19:47:06.473Z,24.77
2022-08-03T19:52:44.425Z,25.27
2022-08-03T19:55:20.664Z,25.25
2022-08-03T19:57:58.968Z,25.40
2022-08-03T20:00:38.157Z,25.73
2022-08-03T20:03:21.921Z,25.60
2022-08-03T20:05:59.374Z,25.65
2022-08-03T20:08:33.593Z,25.80
2022-08-03T20:11:12.603Z,25.84
2022-08-03T20:13:58.403Z,25.81
2022-08-03T20:16:34.172Z,25.77
2022-08-03T20:19:14.375Z,26.06
2022-08-03T20:21:57.656Z,25.83
2022-08-03T20:24:29.147Z,26.20
2022-08-03T20:27:05.185Z,26.28
2022-08-03T20:30:06.872Z,26.36
2022-08-03T20:32:36.965Z,26.18
2022-08-03T20:35:12.056Z,26.06
2022-08-03T20:37:45.860Z,26.30
2022-08-03T20:40:27.388Z,26.45
2022-08-03T20:42:59.865Z,26.58
2022-08-03T20:46:00.945Z,26.75
2022-08-03T20:48:25.912Z,26.81
2022-08-03T20:50:59.646Z,26.66
2022-08-03T20:54:00.177Z,26.97
2022-08-03T20:56:26.410Z,27.08
2022-08-03T20:58:58.473Z,26.97
2022-08-03T21:01:36.394Z,26.88
2022-08-03T21:04:13.834Z,27.23
2022-08-03T21:06:54.351Z,27.22
2022-08-03T21:09:40.445Z,26.99
2022-08-03T21:12:17.942Z,27.31
2022-08-03T21:13:03.004Z,24.94
2022-08-03T21:14:52.458Z,27.44
2022-08-03T21:17:39.967Z,27.33
2022-08-03T21:20:13.618Z,27.41
2022-08-03T21:22:47.367Z,27.55
2022-08-03T21:25:23.387Z,27.34
2022-08-03T21:27:54.148Z,27.57
2022-08-03T21:30:25.508Z,27.64
2022-08-03T21:33:00.448Z,27.54
2022-08-03T21:35:35.020Z,27.81
2022-08-03T21:38:29.480Z,27.61
2022-08-03T21:41:03.074Z,27.69
2022-08-03T21:43:37.846Z,27.92
2022-08-03T21:46:09.014Z,27.78
2022-08-03T21:48:45.035Z,27.87
2022-08-03T21:51:16.483Z,27.98
2022-08-03T21:54:03.173Z,28.00
2022-08-03T21:56:37.964Z,28.11
2022-08-03T21:59:09.492Z,28.23
2022-08-03T22:01:42.927Z,28.30
2022-08-03T22:04:50.363Z,28.38
2022-08-03T22:07:12.599Z,28.41
2022-08-03T22:09:50.104Z,28.42
2022-08-03T22:12:29.340Z,28.32
2022-08-03T22:15:04.006Z,28.81
2022-08-03T22:17:54.729Z,28.89
2022-08-03T22:20:28.723Z,28.93
2022-08-03T22:23:04.614Z,29.06
2022-08-03T22:25:36.034Z,28.94
2022-08-03T22:28:12.875Z,29.26
2022-08-03T22:30:44.305Z,29.21
2022-08-03T22:33:21.573Z,29.24
2022-08-03T22:35:57.811Z,29.46
2022-08-03T22:38:30.249Z,29.55
2022-08-03T22:41:03.628Z,29.84
2022-08-03T22:43:38.107Z,29.87
2022-08-03T22:46:13.482Z,30.11
2022-08-03T22:48:51.998Z,30.26
2022-08-03T22:51:23.348Z,30.33
2022-08-03T22:53:57.125Z,30.45
2022-08-03T22:56:33.072Z,30.60
2022-08-03T22:59:40.698Z,30.74
2022-08-03T23:02:15.086Z,31.01
2022-08-03T23:04:55.608Z,31.16
2022-08-03T23:07:31.763Z,31.09
2022-08-03T23:10:05.300Z,31.50
2022-08-03T23:12:37.790Z,31.60
2022-08-03T23:15:12.252Z,31.67
2022-08-03T23:17:57.873Z,31.78
2022-08-03T23:20:29.656Z,31.91
2022-08-03T23:23:06.608Z,32.15
2022-08-03T23:25:41.406Z,32.20
2022-08-03T23:28:13.820Z,32.33
2022-08-03T23:30:54.041Z,32.40
2022-08-03T23:33:32.111Z,32.63
2022-08-03T23:36:30.480Z,32.70
2022-08-03T23:39:02.501Z,32.81
2022-08-03T23:41:35.901Z,32.92
2022-08-03T23:44:10.040Z,33.10
2022-08-03T23:46:45.957Z,33.12
2022-08-03T23:49:16.796Z,33.41
2022-08-03T23:51:56.567Z,33.58
2022-08-03T23:54:33.035Z,33.65
2022-08-03T23:57:06.022Z,33.58
2022-08-03T23:59:45.364Z,33.73
